Nur fliegen ist schöner ....

Willkommen beim Flugservice Bautzen GmbH

Wir sind eine nach europäischen Richtlinien zugelassene Flugschule und lizenziertes Luftfahrtunternehmen. Bei uns können sie nicht nur Rundflüge über die Oberlausitz oder Sachsen buchen, sondern in unserer Flugschule selber das Fliegen erlernen. Erfahrene Fluglehrer stehen ihnen dabei zur Seite.

Wir bieten Ihnen außerdem spezielle Flüge zur Vermessung oder Fotoflüge für Luftbildaufnahmen an. In Zusammenarbeit mit dem Fallschirmsportclub Dresden und dem Cottbuser Fallschirmsportclub setzen wir am Flugplatz Bautzen und Neuhausen Fallschirmspringer ab.
Schauen sie sich in Ruhe bei uns um und wenn sie Fragen haben oder weitere Informationen benötigen, scheuen sie sich nicht Kontakt mit uns aufzunehmen.

Rundflüge können sie ganz leicht auch online in unserem Shop buchen.

Terminkalender

Letzter Monat Mai 2018 Nächster Monat
Mo Di Mi Do Fr Sa So
week 18 1 2 3 4 5 6
week 19 7 8 9 10 11 12 13
week 20 14 15 16 17 18 19 20
week 21 21 22 23 24 25 26 27
week 22 28 29 30 31

Flugwetterinfo

[Quelle: ADDS]
METAR
EDDC 220150Z 11004KT CAVOK 12/06 Q1014 =
TAF
EDDC 212300Z 2200/2224 09008KT CAVOK =
SR / SS: 03:01 / 18:56 UTC (EDAB Flugplatz Bautzen 2018-05-22)

Webcam EDAB

Webcam EDAB
Flugservice Bautzen GmbH, Kornmarkt 34, 02625 Bautzen  Telefon: +49 (3591) 211105, Telefax: +49 (3591) 274512, E-Mail:  flugservice(at)fsbautzen.de